createdAt,value
2022-12-23T00:00:39.920Z,99710.41
2022-12-23T00:03:07.143Z,99699.59
2022-12-23T00:05:41.067Z,99706.56
2022-12-23T00:08:08.597Z,99701.94
2022-12-23T00:10:39.123Z,99708.75
2022-12-23T00:13:24.446Z,99710.72
2022-12-23T00:16:03.931Z,99704.50
2022-12-23T00:18:30.733Z,99712.34
2022-12-23T00:21:08.778Z,99709.03
2022-12-23T00:23:38.905Z,99708.69
2022-12-23T00:26:13.495Z,99705.50
2022-12-23T00:28:42.482Z,99706.22
2022-12-23T00:31:10.320Z,99713.59
2022-12-23T00:33:42.614Z,99717.16
2022-12-23T00:36:18.705Z,99710.50
2022-12-23T00:39:07.025Z,99701.44
2022-12-23T00:41:52.493Z,99693.97
2022-12-23T00:44:19.211Z,99688.19
2022-12-23T00:46:45.973Z,99689.81
2022-12-23T00:49:36.215Z,99686.28
2022-12-23T00:52:04.430Z,99683.19
2022-12-23T00:54:35.717Z,99691.44
2022-12-23T00:57:04.644Z,99688.34
2022-12-23T00:59:31.616Z,99697.00
2022-12-23T01:02:16.961Z,99693.00
2022-12-23T01:05:02.096Z,99697.56
2022-12-23T01:07:33.209Z,99689.00
2022-12-23T01:10:02.166Z,99684.72
2022-12-23T01:12:30.937Z,99682.00
2022-12-23T01:14:59.786Z,99684.03
2022-12-23T01:17:31.122Z,99673.22
2022-12-23T01:19:57.730Z,99673.94
2022-12-23T01:22:26.537Z,99676.38
2022-12-23T01:24:55.219Z,99673.31
2022-12-23T01:27:24.331Z,99669.41
2022-12-23T01:29:55.642Z,99669.59
2022-12-23T01:32:22.246Z,99659.72
2022-12-23T01:34:48.786Z,99668.56
2022-12-23T01:37:15.360Z,99670.75
2022-12-23T01:39:44.131Z,99667.41
2022-12-23T01:42:37.820Z,99654.91
2022-12-23T01:45:13.739Z,99655.09
2022-12-23T01:47:53.377Z,99661.16
2022-12-23T01:50:22.976Z,99659.69
2022-12-23T01:52:51.752Z,99652.56
2022-12-23T01:55:26.265Z,99650.09
2022-12-23T01:57:56.268Z,99650.66
2022-12-23T02:00:43.735Z,99649.22
2022-12-23T02:03:29.344Z,99649.53
2022-12-23T02:06:17.161Z,99647.94
2022-12-23T02:09:02.013Z,99641.66
2022-12-23T02:11:56.051Z,99635.84
2022-12-23T02:14:56.393Z,99635.13
2022-12-23T02:17:29.515Z,99630.19
2022-12-23T02:20:01.332Z,99630.88
2022-12-23T02:23:05.180Z,99632.38
2022-12-23T02:25:45.819Z,99637.59
2022-12-23T02:28:33.809Z,99634.91
2022-12-23T02:31:10.647Z,99630.19
2022-12-23T02:34:22.281Z,99635.38
2022-12-23T02:37:35.481Z,99627.56
2022-12-23T02:44:09.060Z,99639.03
2022-12-23T02:47:03.357Z,99635.56
2022-12-23T02:49:38.336Z,99635.75
2022-12-23T02:52:14.218Z,99645.44
2022-12-23T02:55:07.773Z,99645.31
2022-12-23T02:57:40.157Z,99643.28
2022-12-23T03:00:08.149Z,99645.94
2022-12-23T03:02:39.643Z,99641.03
2022-12-23T03:05:25.798Z,99641.84
2022-12-23T03:07:59.403Z,99649.75
2022-12-23T03:10:43.233Z,99645.75
2022-12-23T03:13:27.083Z,99638.69
2022-12-23T03:16:11.731Z,99632.81
2022-12-23T03:18:56.494Z,99635.97
2022-12-23T03:21:39.065Z,99637.91
2022-12-23T03:24:29.849Z,99633.13
2022-12-23T03:27:28.677Z,99637.72
2022-12-23T03:30:04.983Z,99632.00
2022-12-23T03:32:46.961Z,99634.00
2022-12-23T03:35:22.732Z,99628.31
2022-12-23T03:37:54.798Z,99639.56
2022-12-23T03:40:28.539Z,99633.44
2022-12-23T03:43:04.465Z,99621.44
2022-12-23T03:45:41.368Z,99637.28
2022-12-23T03:48:36.888Z,99617.75
2022-12-23T03:51:11.538Z,99627.53
2022-12-23T03:53:47.985Z,99615.59
2022-12-23T03:56:28.485Z,99626.75
2022-12-23T03:58:58.073Z,99622.56
2022-12-23T04:01:42.053Z,99615.81
2022-12-23T04:04:23.401Z,99618.66
2022-12-23T04:07:18.596Z,99622.44
2022-12-23T04:09:45.237Z,99613.97
2022-12-23T04:12:17.856Z,99617.53
2022-12-23T04:14:49.140Z,99606.16
2022-12-23T04:17:17.247Z,99603.38
2022-12-23T04:19:48.105Z,99598.81
2022-12-23T04:22:15.793Z,99603.75
2022-12-23T04:24:45.111Z,99601.13
2022-12-23T04:27:12.773Z,99604.19
2022-12-23T04:29:39.412Z,99608.84
2022-12-23T04:32:10.992Z,99604.19
2022-12-23T04:34:39.895Z,99611.78
2022-12-23T04:37:06.496Z,99609.16
2022-12-23T04:39:36.011Z,99611.44
2022-12-23T04:42:02.596Z,99616.19
2022-12-23T04:44:29.180Z,99623.38
2022-12-23T04:46:58.247Z,99619.31
2022-12-23T04:49:27.117Z,99623.75
2022-12-23T04:51:56.036Z,99614.00
2022-12-23T04:54:46.080Z,99617.13
2022-12-23T04:57:13.372Z,99623.13
2022-12-23T04:59:44.775Z,99614.44
2022-12-23T05:02:11.425Z,99619.63
2022-12-23T05:04:40.875Z,99608.13
2022-12-23T05:07:07.381Z,99609.72
2022-12-23T05:09:36.311Z,99618.63
2022-12-23T05:12:02.922Z,99620.56
2022-12-23T05:14:36.556Z,99617.47
2022-12-23T05:17:07.926Z,99620.28
2022-12-23T05:19:34.911Z,99622.38
2022-12-23T05:22:01.434Z,99620.72
2022-12-23T05:24:30.978Z,99610.34
2022-12-23T05:27:00.202Z,99617.06
2022-12-23T05:29:31.919Z,99617.00
2022-12-23T05:31:58.627Z,99613.25
2022-12-23T05:34:25.310Z,99614.13
2022-12-23T05:36:54.847Z,99614.25
2022-12-23T05:39:26.181Z,99609.63
2022-12-23T05:41:52.711Z,99615.38
2022-12-23T05:44:19.242Z,99622.28
2022-12-23T05:46:48.025Z,99626.38
2022-12-23T05:49:17.647Z,99632.56
2022-12-23T05:51:46.782Z,99645.25
2022-12-23T05:54:13.408Z,99635.47
2022-12-23T05:56:40.036Z,99638.25
2022-12-23T05:59:10.598Z,99633.75
2022-12-23T06:01:37.276Z,99636.34
2022-12-23T06:04:04.247Z,99631.63
2022-12-23T06:06:33.201Z,99630.03
2022-12-23T06:09:02.128Z,99634.53
2022-12-23T06:11:28.784Z,99629.72
2022-12-23T06:13:55.467Z,99629.50
2022-12-23T06:16:26.601Z,99628.59
2022-12-23T06:18:58.347Z,99635.09
2022-12-23T06:21:30.766Z,99629.75
2022-12-23T06:23:59.553Z,99624.97
2022-12-23T06:26:29.211Z,99635.94
2022-12-23T06:28:58.378Z,99637.22
2022-12-23T06:31:29.761Z,99631.88
2022-12-23T06:34:01.965Z,99621.47
2022-12-23T06:36:31.091Z,99625.06
2022-12-23T06:38:57.670Z,99629.50
2022-12-23T06:41:26.440Z,99630.09
2022-12-23T06:43:54.631Z,99632.38
2022-12-23T06:46:23.656Z,99635.97
2022-12-23T06:48:50.295Z,99639.88
2022-12-23T06:51:19.107Z,99643.44
2022-12-23T06:53:45.645Z,99643.44
2022-12-23T06:56:14.578Z,99648.34
2022-12-23T06:58:41.142Z,99657.34
2022-12-23T07:01:10.569Z,99666.13
2022-12-23T07:03:40.495Z,99678.31
2022-12-23T07:06:07.302Z,99680.69
2022-12-23T07:08:33.975Z,99682.16
2022-12-23T07:11:01.843Z,99685.59
2022-12-23T07:13:28.526Z,99691.09
2022-12-23T07:15:57.344Z,99702.38
2022-12-23T07:18:24.532Z,99696.53
2022-12-23T07:20:53.581Z,99690.28
2022-12-23T07:23:24.720Z,99684.88
2022-12-23T07:25:51.329Z,99681.53
2022-12-23T07:28:18.040Z,99674.22
2022-12-23T07:30:44.889Z,99663.38
2022-12-23T07:33:11.481Z,99662.56
2022-12-23T07:35:38.116Z,99659.25
2022-12-23T07:38:04.627Z,99654.78
2022-12-23T07:40:31.155Z,99656.03
2022-12-23T07:43:01.041Z,99662.19
2022-12-23T07:45:31.496Z,99656.13
2022-12-23T07:47:59.943Z,99656.78
2022-12-23T07:50:29.167Z,99656.78
2022-12-23T07:52:57.932Z,99650.97
2022-12-23T07:55:24.491Z,99649.47
2022-12-23T07:57:52.494Z,99656.78
2022-12-23T08:00:23.060Z,99651.94
2022-12-23T08:02:51.969Z,99653.44
2022-12-23T08:05:21.252Z,99649.09
2022-12-23T08:07:50.050Z,99643.28
2022-12-23T08:10:19.287Z,99640.28
2022-12-23T08:12:47.943Z,99637.81
2022-12-23T08:15:17.075Z,99639.16
2022-12-23T08:17:43.733Z,99654.22
2022-12-23T08:20:13.107Z,99656.75
2022-12-23T08:22:39.584Z,99643.88
2022-12-23T08:25:06.801Z,99637.94
2022-12-23T08:27:36.330Z,99637.84
2022-12-23T08:30:03.271Z,99639.16
2022-12-23T08:32:29.916Z,99639.66
2022-12-23T08:35:00.201Z,99631.66
2022-12-23T08:37:26.839Z,99637.34
2022-12-23T08:39:53.434Z,99644.59
2022-12-23T08:42:20.130Z,99644.56
2022-12-23T08:44:46.812Z,99644.50
2022-12-23T08:47:15.932Z,99638.81
2022-12-23T08:49:47.307Z,99627.22
2022-12-23T08:52:19.454Z,99621.28
2022-12-23T08:54:48.671Z,99601.75
2022-12-23T08:57:15.535Z,99597.50
2022-12-23T08:59:42.230Z,99597.25
2022-12-23T09:02:15.066Z,99607.78
2022-12-23T09:04:41.843Z,99596.28
2022-12-23T09:07:10.604Z,99606.69
2022-12-23T09:09:48.624Z,99602.88
2022-12-23T09:12:17.769Z,99614.00
2022-12-23T09:14:47.923Z,99612.38
2022-12-23T09:17:14.606Z,99614.38
2022-12-23T09:19:48.605Z,99611.13
2022-12-23T09:22:21.253Z,99618.56
2022-12-23T09:26:13.616Z,99624.41
2022-12-23T09:29:36.821Z,99629.38
2022-12-23T09:35:35.466Z,99613.09
2022-12-23T09:38:04.761Z,99608.56
2022-12-23T09:40:34.829Z,99605.69
2022-12-23T09:43:10.479Z,99597.78
2022-12-23T09:46:10.914Z,99588.16
2022-12-23T09:48:47.856Z,99586.09
2022-12-23T09:51:22.443Z,99594.38
2022-12-23T09:54:31.461Z,99604.47
2022-12-23T09:57:29.111Z,99598.59
2022-12-23T09:59:58.240Z,99591.94
2022-12-23T10:02:39.927Z,99595.53
2022-12-23T10:08:42.218Z,99572.28
2022-12-23T10:11:39.334Z,99565.75
2022-12-23T10:14:46.859Z,99564.75
2022-12-23T10:24:44.860Z,99561.22
2022-12-23T10:27:40.252Z,99561.00
2022-12-23T10:32:10.823Z,99554.28
2022-12-23T10:34:34.915Z,99541.97
2022-12-23T10:37:17.803Z,99533.38
2022-12-23T10:39:53.285Z,99536.53
2022-12-23T10:42:42.893Z,99537.16
2022-12-23T10:45:54.799Z,99533.28
2022-12-23T10:49:04.078Z,99528.34
2022-12-23T10:51:46.083Z,99515.16
2022-12-23T10:54:17.946Z,99524.69
2022-12-23T10:56:45.015Z,99516.16
2022-12-23T10:59:19.312Z,99522.00
2022-12-23T11:01:54.552Z,99533.34
2022-12-23T11:04:33.681Z,99530.72
2022-12-23T11:07:42.117Z,99527.47
2022-12-23T11:10:02.752Z,99518.75
2022-12-23T11:12:47.574Z,99524.31
2022-12-23T11:15:39.824Z,99524.41
2022-12-23T11:18:12.621Z,99517.91
2022-12-23T11:20:44.517Z,99516.69
2022-12-23T11:23:28.126Z,99506.13
2022-12-23T11:26:03.501Z,99514.34
2022-12-23T11:28:38.366Z,99510.00
2022-12-23T11:31:17.182Z,99503.25
2022-12-23T11:33:56.027Z,99495.56
2022-12-23T11:36:25.464Z,99506.94
2022-12-23T11:38:54.559Z,99516.34
2022-12-23T11:41:27.472Z,99518.16
2022-12-23T11:44:12.593Z,99519.06
2022-12-23T11:46:41.493Z,99519.00
2022-12-23T11:49:14.315Z,99526.69
2022-12-23T11:51:43.721Z,99527.22
2022-12-23T11:54:20.793Z,99525.81
2022-12-23T11:56:56.453Z,99514.06
2022-12-23T11:59:43.592Z,99516.00
2022-12-23T12:02:29.017Z,99520.19
2022-12-23T12:05:02.392Z,99511.13
2022-12-23T12:07:33.185Z,99514.97
2022-12-23T12:10:03.226Z,99527.84
2022-12-23T12:12:30.525Z,99531.50
2022-12-23T12:15:00.297Z,99523.34
2022-12-23T12:17:42.148Z,99524.69
2022-12-23T12:20:23.896Z,99531.59
2022-12-23T12:23:07.963Z,99532.72
2022-12-23T12:25:46.868Z,99530.94
2022-12-23T12:28:33.161Z,99522.47
2022-12-23T12:31:17.285Z,99537.41
2022-12-23T12:34:03.704Z,99533.44
2022-12-23T12:36:52.095Z,99533.47
2022-12-23T12:39:36.069Z,99524.84
2022-12-23T12:42:16.812Z,99518.47
2022-12-23T12:45:00.365Z,99510.34
2022-12-23T12:47:53.187Z,99518.00
2022-12-23T12:50:36.447Z,99523.94
2022-12-23T12:53:26.962Z,99523.03
2022-12-23T12:56:01.683Z,99516.09
2022-12-23T12:58:28.646Z,99517.75
2022-12-23T13:01:00.713Z,99527.38
2022-12-23T13:03:57.114Z,99524.78
2022-12-23T13:06:29.805Z,99526.72
2022-12-23T13:09:08.934Z,99525.81
2022-12-23T13:12:00.164Z,99531.34
2022-12-23T13:14:35.385Z,99525.16
2022-12-23T13:17:28.495Z,99531.19
2022-12-23T13:20:09.154Z,99525.78
2022-12-23T13:22:37.416Z,99537.97
2022-12-23T13:25:10.380Z,99536.53
2022-12-23T13:28:08.086Z,99523.63
2022-12-23T13:30:59.985Z,99524.50
2022-12-23T13:33:44.465Z,99528.22
2022-12-23T13:36:37.649Z,99527.38
2022-12-23T13:39:28.661Z,99532.06
2022-12-23T13:42:05.233Z,99534.38
2022-12-23T13:44:37.711Z,99532.84
2022-12-23T13:47:33.294Z,99535.53
2022-12-23T13:50:16.956Z,99531.63
2022-12-23T13:52:49.812Z,99537.00
2022-12-23T13:55:53.291Z,99533.81
2022-12-23T13:58:28.427Z,99513.25
2022-12-23T14:01:08.336Z,99522.50
2022-12-23T14:03:43.854Z,99522.34
2022-12-23T14:06:28.049Z,99530.63
2022-12-23T14:09:01.971Z,99528.44
2022-12-23T14:11:33.538Z,99543.84
2022-12-23T14:14:47.059Z,99535.63
2022-12-23T14:17:32.185Z,99532.63
2022-12-23T14:20:17.496Z,99541.91
2022-12-23T14:22:52.275Z,99536.75
2022-12-23T14:29:51.832Z,99537.97
2022-12-23T14:32:26.048Z,99541.81
2022-12-23T14:35:22.726Z,99546.91
2022-12-23T14:38:10.526Z,99549.94
2022-12-23T14:40:39.480Z,99562.28
2022-12-23T14:43:51.405Z,99552.47
2022-12-23T14:46:42.343Z,99552.47
2022-12-23T14:49:38.848Z,99553.66
2022-12-23T14:52:54.663Z,99538.03
2022-12-23T14:56:32.469Z,99546.88
2022-12-23T14:58:58.963Z,99540.75
2022-12-23T15:01:38.083Z,99547.38
2022-12-23T15:05:14.047Z,99556.63
2022-12-23T15:07:50.660Z,99555.84
2022-12-23T15:10:34.301Z,99561.69
2022-12-23T15:13:37.603Z,99570.34
2022-12-23T15:16:11.448Z,99575.53
2022-12-23T15:18:40.997Z,99569.31
2022-12-23T15:21:14.575Z,99578.34
2022-12-23T15:24:00.051Z,99576.22
2022-12-23T15:26:31.856Z,99592.25
2022-12-23T15:29:00.797Z,99579.00
2022-12-23T15:31:40.404Z,99575.84
2022-12-23T15:34:19.079Z,99579.97
2022-12-23T15:36:54.338Z,99584.47
2022-12-23T15:39:36.550Z,99571.78
2022-12-23T15:42:06.993Z,99567.66
2022-12-23T15:44:45.254Z,99576.03
2022-12-23T15:47:43.664Z,99580.34
2022-12-23T15:50:18.349Z,99555.84
2022-12-23T15:52:52.539Z,99546.72
2022-12-23T15:56:17.487Z,99543.53
2022-12-23T15:58:23.650Z,99560.41
2022-12-23T16:01:15.335Z,99564.75
2022-12-23T16:04:09.144Z,99558.38
2022-12-23T16:06:39.121Z,99558.66
2022-12-23T16:09:13.511Z,99560.50
2022-12-23T16:11:58.909Z,99570.75
2022-12-23T16:14:35.972Z,99579.00
2022-12-23T16:17:08.919Z,99574.00
2022-12-23T16:19:47.868Z,99567.22
2022-12-23T16:22:23.283Z,99566.69
2022-12-23T16:24:52.281Z,99561.41
2022-12-23T16:27:40.372Z,99561.78
2022-12-23T16:30:41.788Z,99559.91
2022-12-23T16:33:45.481Z,99569.50
2022-12-23T16:36:24.558Z,99566.22
2022-12-23T16:38:59.040Z,99562.34
2022-12-23T16:41:25.833Z,99567.16
2022-12-23T16:43:55.047Z,99563.94
2022-12-23T16:46:25.673Z,99558.13
2022-12-23T16:48:59.978Z,99561.59
2022-12-23T16:51:31.133Z,99561.91
2022-12-23T16:54:00.209Z,99559.13
2022-12-23T16:56:33.248Z,99553.81
2022-12-23T16:58:59.893Z,99558.56
2022-12-23T17:01:32.193Z,99549.69
2022-12-23T17:04:00.937Z,99538.53
2022-12-23T17:06:28.229Z,99551.53
2022-12-23T17:08:56.783Z,99553.34
2022-12-23T17:11:40.083Z,99550.38
2022-12-23T17:14:11.984Z,99551.44
2022-12-23T17:16:45.163Z,99544.81
2022-12-23T17:19:14.204Z,99544.31
2022-12-23T17:21:42.896Z,99547.78
2022-12-23T17:24:12.096Z,99545.25
2022-12-23T17:26:41.170Z,99535.25
2022-12-23T17:29:14.294Z,99546.47
2022-12-23T17:31:45.390Z,99550.72
2022-12-23T17:34:21.364Z,99550.13
2022-12-23T17:36:53.380Z,99544.09
2022-12-23T17:39:20.758Z,99542.63
2022-12-23T17:41:50.455Z,99540.84
2022-12-23T17:44:21.421Z,99547.28
2022-12-23T17:46:50.584Z,99557.53
2022-12-23T17:49:17.281Z,99560.72
2022-12-23T17:51:44.036Z,99549.56
2022-12-23T17:54:25.762Z,99549.59
2022-12-23T17:56:54.863Z,99541.13
2022-12-23T17:59:21.883Z,99546.31
2022-12-23T18:01:51.319Z,99545.16
2022-12-23T18:04:20.435Z,99541.78
2022-12-23T18:06:49.508Z,99543.31
2022-12-23T18:09:21.392Z,99538.91
2022-12-23T18:11:50.665Z,99530.94
2022-12-23T18:14:24.691Z,99521.13
2022-12-23T18:16:51.465Z,99523.25
2022-12-23T18:19:20.808Z,99541.72
2022-12-23T18:21:47.659Z,99539.47
2022-12-23T18:24:14.407Z,99526.78
2022-12-23T18:26:44.241Z,99535.38
2022-12-23T18:29:13.271Z,99533.09
2022-12-23T18:31:51.131Z,99535.16
2022-12-23T18:34:19.795Z,99530.03
2022-12-23T18:36:51.734Z,99544.19
2022-12-23T18:39:18.890Z,99545.22
2022-12-23T18:41:47.670Z,99544.31
2022-12-23T18:44:20.635Z,99539.53
2022-12-23T18:46:51.176Z,99542.50
2022-12-23T18:49:18.276Z,99548.72
2022-12-23T18:51:47.655Z,99546.31
2022-12-23T18:54:20.269Z,99538.81
2022-12-23T18:56:47.624Z,99545.72
2022-12-23T18:59:29.313Z,99550.19
2022-12-23T19:01:59.501Z,99547.09
2022-12-23T19:04:29.742Z,99551.03
2022-12-23T19:06:57.496Z,99561.72
2022-12-23T19:09:25.152Z,99566.56
2022-12-23T19:11:54.731Z,99563.47
2022-12-23T19:14:21.376Z,99554.69
2022-12-23T19:16:52.226Z,99559.28
2022-12-23T19:19:19.425Z,99560.41
2022-12-23T19:21:48.703Z,99564.53
2022-12-23T19:24:18.136Z,99570.59
2022-12-23T19:26:47.228Z,99575.44
2022-12-23T19:29:16.217Z,99579.22
2022-12-23T19:31:42.852Z,99573.63
2022-12-23T19:34:15.445Z,99567.31
2022-12-23T19:36:43.542Z,99574.84
2022-12-23T19:39:16.695Z,99578.63
2022-12-23T19:41:46.222Z,99582.34
2022-12-23T19:44:12.874Z,99580.69
2022-12-23T19:46:39.631Z,99582.97
2022-12-23T19:49:06.265Z,99574.97
2022-12-23T19:51:32.891Z,99578.69
2022-12-23T19:54:02.082Z,99588.63
2022-12-23T19:56:32.556Z,99583.47
2022-12-23T19:59:01.171Z,99579.03
2022-12-23T20:01:30.461Z,99589.59
2022-12-23T20:04:11.561Z,99600.06
2022-12-23T20:06:46.095Z,99592.66
2022-12-23T20:09:13.671Z,99604.88
2022-12-23T20:11:46.086Z,99596.31
2022-12-23T20:14:15.212Z,99601.91
2022-12-23T20:16:42.476Z,99590.75
2022-12-23T20:19:09.607Z,99589.34
2022-12-23T20:21:37.991Z,99589.56
2022-12-23T20:24:06.250Z,99586.94
2022-12-23T20:26:33.546Z,99584.91
2022-12-23T20:29:02.625Z,99575.00
2022-12-23T20:31:31.551Z,99576.19
2022-12-23T20:33:58.904Z,99558.63
2022-12-23T20:36:30.283Z,99561.75
2022-12-23T20:38:57.476Z,99561.47
2022-12-23T20:41:28.547Z,99556.13
2022-12-23T20:44:32.323Z,99552.66
2022-12-23T20:46:44.277Z,99544.53
2022-12-23T20:49:15.885Z,99542.38
2022-12-23T20:51:42.541Z,99542.94
2022-12-23T20:54:11.753Z,99535.16
2022-12-23T20:56:38.375Z,99537.81
2022-12-23T20:59:07.365Z,99539.59
2022-12-23T21:01:38.558Z,99537.72
2022-12-23T21:04:08.630Z,99532.81
2022-12-23T21:06:36.210Z,99541.28
2022-12-23T21:09:09.272Z,99536.47
2022-12-23T21:11:39.289Z,99537.63
2022-12-23T21:14:07.432Z,99535.44
2022-12-23T21:16:36.839Z,99544.63
2022-12-23T21:19:05.004Z,99551.69
2022-12-23T21:21:32.155Z,99557.38
2022-12-23T21:24:01.193Z,99549.00
2022-12-23T21:26:30.517Z,99534.81
2022-12-23T21:29:01.164Z,99522.50
2022-12-23T21:31:32.177Z,99519.59
2022-12-23T21:34:04.132Z,99516.81
2022-12-23T21:36:39.498Z,99521.69
2022-12-23T21:39:09.692Z,99517.69
2022-12-23T21:41:41.952Z,99522.19
2022-12-23T21:44:10.135Z,99517.69
2022-12-23T21:46:39.683Z,99512.31
2022-12-23T21:49:06.382Z,99511.81
2022-12-23T21:51:40.146Z,99506.72
2022-12-23T21:54:11.354Z,99505.41
2022-12-23T21:56:39.983Z,99507.22
2022-12-23T21:59:13.291Z,99504.69
2022-12-23T22:01:47.984Z,99500.59
2022-12-23T22:04:16.861Z,99508.03
2022-12-23T22:06:47.722Z,99490.56
2022-12-23T22:09:22.129Z,99480.47
2022-12-23T22:11:48.817Z,99484.41
2022-12-23T22:14:19.702Z,99469.13
2022-12-23T22:16:48.986Z,99460.91
2022-12-23T22:19:15.867Z,99448.16
2022-12-23T22:21:44.956Z,99440.13
2022-12-23T22:24:12.052Z,99432.72
2022-12-23T22:26:39.659Z,99427.56
2022-12-23T22:29:09.613Z,99425.91
2022-12-23T22:31:46.564Z,99424.25
2022-12-23T22:34:19.265Z,99429.44
2022-12-23T22:36:46.489Z,99418.03
2022-12-23T22:39:19.995Z,99414.06
2022-12-23T22:41:51.412Z,99416.19
2022-12-23T22:44:18.668Z,99429.53
2022-12-23T22:46:50.459Z,99419.41
2022-12-23T22:49:22.082Z,99428.16
2022-12-23T22:51:51.250Z,99412.88
2022-12-23T22:54:17.916Z,99414.75
2022-12-23T22:56:46.142Z,99418.94
2022-12-23T22:59:24.335Z,99404.53
2022-12-23T23:01:52.583Z,99409.78
2022-12-23T23:04:24.448Z,99417.69
2022-12-23T23:06:51.144Z,99409.97
2022-12-23T23:09:24.535Z,99411.97
2022-12-23T23:11:53.699Z,99406.22
2022-12-23T23:14:22.608Z,99414.72
2022-12-23T23:16:51.579Z,99424.09
2022-12-23T23:19:20.804Z,99416.69
2022-12-23T23:21:48.849Z,99414.00
2022-12-23T23:24:15.799Z,99411.44
2022-12-23T23:26:45.049Z,99405.66
2022-12-23T23:29:11.553Z,99409.28
2022-12-23T23:31:43.303Z,99421.94
2022-12-23T23:34:12.145Z,99420.31
2022-12-23T23:36:39.460Z,99415.78
2022-12-23T23:39:09.079Z,99413.22
2022-12-23T23:41:38.308Z,99399.06
2022-12-23T23:44:10.542Z,99393.03
2022-12-23T23:46:39.918Z,99387.09
2022-12-23T23:49:08.964Z,99388.25
2022-12-23T23:51:39.529Z,99378.50
2022-12-23T23:54:09.154Z,99389.94
2022-12-23T23:56:38.533Z,99388.78
2022-12-23T23:59:11.021Z,99396.25
